createdAt,value
2023-04-18T05:29:00.958Z,9.53
2023-04-18T05:32:14.800Z,9.49
2023-04-18T05:35:26.737Z,9.51
2023-04-18T05:38:38.792Z,9.52
2023-04-18T05:47:51.505Z,9.61
2023-04-18T05:51:03.730Z,9.64
2023-04-18T05:54:16.346Z,9.59
2023-04-18T05:57:28.770Z,9.74
2023-04-18T06:00:40.977Z,9.84
2023-04-18T06:03:54.067Z,9.89
2023-04-18T06:07:06.838Z,9.95
2023-04-18T06:10:19.580Z,9.93
2023-04-18T06:13:32.295Z,9.89
2023-04-18T06:19:44.980Z,9.94
2023-04-18T06:22:58.017Z,9.94
2023-04-18T06:29:11.276Z,9.94
2023-04-18T06:32:23.657Z,9.95
2023-04-18T06:35:36.918Z,9.93
2023-04-18T06:38:49.035Z,9.93
2023-04-18T06:51:01.354Z,9.87
2023-04-18T06:54:13.685Z,9.91
2023-04-18T06:57:28.292Z,9.90
2023-04-18T07:00:40.455Z,9.97
2023-04-18T07:03:52.661Z,10.02
2023-04-18T07:07:05.543Z,10.05
2023-04-18T07:10:18.596Z,10.01
2023-04-18T07:13:30.791Z,10.35
2023-04-18T07:16:42.972Z,10.39
2023-04-18T07:19:55.213Z,10.39
2023-04-18T07:23:07.242Z,10.36
2023-04-18T07:26:19.807Z,10.48
2023-04-18T07:29:31.882Z,10.58
2023-04-18T07:32:44.039Z,10.86
2023-04-18T07:35:56.385Z,10.97
2023-04-18T07:39:08.885Z,11.39
2023-04-18T07:42:21.007Z,11.59
2023-04-18T07:45:33.695Z,12.41
2023-04-18T07:48:46.558Z,13.20
2023-04-18T07:51:58.667Z,13.05
2023-04-18T07:55:12.706Z,12.95
2023-04-18T07:58:25.419Z,12.80
2023-04-18T08:01:37.747Z,13.25
2023-04-18T08:04:52.383Z,13.82
2023-04-18T08:08:05.035Z,14.20
2023-04-18T08:11:17.136Z,15.22
2023-04-18T08:14:29.471Z,15.63
2023-04-18T08:17:44.031Z,16.11
2023-04-18T08:20:57.939Z,16.09
2023-04-18T08:24:16.790Z,15.71
2023-04-18T08:27:28.844Z,16.19
2023-04-18T08:30:41.305Z,15.81
2023-04-18T08:33:53.632Z,15.89
2023-04-18T08:37:07.564Z,15.87
2023-04-18T08:40:20.648Z,16.62
2023-04-18T08:43:33.001Z,16.38
2023-04-18T08:46:45.223Z,16.96
2023-04-18T08:49:57.818Z,17.31
2023-04-18T08:53:10.331Z,17.29
2023-04-18T08:56:25.018Z,17.12
2023-04-18T08:59:37.308Z,17.18
2023-04-18T09:02:49.912Z,17.45
2023-04-18T09:06:19.506Z,17.35
2023-04-18T09:09:31.810Z,17.55
2023-04-18T09:12:50.925Z,17.64
2023-04-18T09:16:03.665Z,17.40
2023-04-18T09:19:21.965Z,16.51
2023-04-18T09:22:50.746Z,16.68
2023-04-18T09:26:03.149Z,16.57
2023-04-18T09:29:17.567Z,17.62
2023-04-18T09:32:34.930Z,18.09
2023-04-18T09:35:47.756Z,17.82
2023-04-18T09:39:01.234Z,17.88
2023-04-18T09:42:18.050Z,18.23
2023-04-18T09:45:30.121Z,18.43
2023-04-18T09:48:42.869Z,18.35
2023-04-18T09:51:57.916Z,17.74
2023-04-18T09:55:13.253Z,17.89
2023-04-18T09:58:28.909Z,18.93
2023-04-18T10:01:44.524Z,19.40
2023-04-18T10:04:58.298Z,19.48
2023-04-18T10:08:13.165Z,19.29
2023-04-18T10:11:25.760Z,19.04
2023-04-18T10:14:40.751Z,19.47
2023-04-18T10:18:04.237Z,19.34
2023-04-18T10:21:12.357Z,18.90
2023-04-18T10:24:54.673Z,19.36
2023-04-18T10:28:09.060Z,19.82
2023-04-18T10:31:22.492Z,19.01
2023-04-18T10:34:35.001Z,19.17
2023-04-18T10:38:02.663Z,19.32
2023-04-18T10:41:28.488Z,18.69
2023-04-18T10:44:40.691Z,17.98
2023-04-18T10:47:53.378Z,17.92
2023-04-18T10:51:23.780Z,18.52
2023-04-18T10:54:41.879Z,18.44
2023-04-18T10:57:56.864Z,18.90
2023-04-18T11:01:12.361Z,18.71
2023-04-18T11:04:24.864Z,18.70
2023-04-18T11:07:46.389Z,18.49
2023-04-18T11:11:09.132Z,18.87
2023-04-18T11:14:21.654Z,18.74
2023-04-18T11:17:38.538Z,18.55
2023-04-18T11:20:55.552Z,18.98
2023-04-18T11:24:08.775Z,19.33
2023-04-18T11:27:21.915Z,19.44
2023-04-18T11:30:37.113Z,19.02
2023-04-18T11:33:51.947Z,19.02
2023-04-18T11:37:04.481Z,18.89
2023-04-18T11:40:19.665Z,18.65
2023-04-18T11:43:32.516Z,18.61
2023-04-18T11:46:50.414Z,18.95
2023-04-18T11:50:07.936Z,18.31
2023-04-18T11:53:22.387Z,18.08
2023-04-18T11:56:36.692Z,18.22
2023-04-18T11:59:56.427Z,18.09
2023-04-18T12:03:13.412Z,17.74
2023-04-18T12:06:24.679Z,18.17
2023-04-18T12:09:36.960Z,18.08
2023-04-18T12:12:53.556Z,18.10
2023-04-18T12:16:08.110Z,18.29
2023-04-18T12:19:20.711Z,18.03
2023-04-18T12:22:55.319Z,18.26
2023-04-18T12:26:14.619Z,18.46
2023-04-18T12:29:27.090Z,18.37
2023-04-18T12:32:39.511Z,18.33
2023-04-18T12:35:52.544Z,18.24
2023-04-18T12:39:06.270Z,17.88
2023-04-18T12:42:18.368Z,17.70
2023-04-18T12:45:31.306Z,17.17
2023-04-18T12:48:43.409Z,17.20
2023-04-18T12:51:55.649Z,17.34
2023-04-18T12:55:08.014Z,17.37
2023-04-18T12:58:21.007Z,17.27
2023-04-18T13:01:34.226Z,17.12
2023-04-18T13:04:46.915Z,16.96
2023-04-18T13:08:15.236Z,16.89
2023-04-18T13:11:14.230Z,17.05
2023-04-18T13:14:26.798Z,17.08
2023-04-18T13:17:39.675Z,17.15
2023-04-18T13:20:52.865Z,17.11
2023-04-18T13:24:05.664Z,17.23
2023-04-18T13:27:17.872Z,17.02
2023-04-18T13:30:30.522Z,17.08
2023-04-18T13:33:43.621Z,17.11
2023-04-18T13:36:56.739Z,17.14
2023-04-18T13:40:12.569Z,17.23
2023-04-18T13:43:25.076Z,17.33
2023-04-18T13:46:37.332Z,17.12
2023-04-18T13:49:49.473Z,17.27
2023-04-18T13:53:01.564Z,17.25
2023-04-18T13:56:14.650Z,17.29
2023-04-18T13:59:27.319Z,17.28
2023-04-18T14:02:39.601Z,17.10
2023-04-18T14:05:52.065Z,17.19
2023-04-18T14:09:04.656Z,16.96
2023-04-18T14:12:18.027Z,16.99
2023-04-18T14:15:32.469Z,17.04
2023-04-18T14:18:46.834Z,17.02
2023-04-18T14:21:59.092Z,16.97
2023-04-18T14:25:14.620Z,16.89
2023-04-18T14:28:26.830Z,16.83
2023-04-18T14:31:39.268Z,16.79
2023-04-18T14:34:51.435Z,16.65
2023-04-18T14:38:03.568Z,16.60
2023-04-18T14:41:16.243Z,16.60
2023-04-18T14:44:28.769Z,16.65
2023-04-18T14:47:42.186Z,16.66
2023-04-18T14:51:02.936Z,16.64
2023-04-18T14:54:15.182Z,16.64
2023-04-18T14:57:28.551Z,16.59
2023-04-18T15:00:41.000Z,16.65
2023-04-18T15:03:56.016Z,16.63
2023-04-18T15:07:08.279Z,16.61
2023-04-18T15:10:22.626Z,16.57
2023-04-18T15:13:35.122Z,16.59
2023-04-18T15:16:47.433Z,16.71
2023-04-18T15:20:00.033Z,16.64
2023-04-18T15:23:13.914Z,16.63
2023-04-18T15:26:26.308Z,16.55
2023-04-18T15:29:39.209Z,16.51
2023-04-18T15:32:52.477Z,16.34
2023-04-18T15:36:04.614Z,16.03
2023-04-18T15:39:18.203Z,16.05
2023-04-18T15:42:30.700Z,15.87
2023-04-18T15:45:44.760Z,15.70
2023-04-18T15:48:57.530Z,15.63
2023-04-18T15:52:10.795Z,15.58
2023-04-18T15:55:23.323Z,15.48
2023-04-18T15:58:35.491Z,15.47
2023-04-18T16:01:47.805Z,15.49
2023-04-18T16:05:00.164Z,15.37
2023-04-18T16:08:12.701Z,15.22
2023-04-18T16:11:26.427Z,15.22
2023-04-18T16:14:38.856Z,15.12
2023-04-18T16:17:51.079Z,14.97
2023-04-18T16:21:03.536Z,15.00
2023-04-18T16:24:16.545Z,15.00
2023-04-18T16:27:29.167Z,14.88
2023-04-18T16:30:43.465Z,14.98
2023-04-18T16:33:56.660Z,14.92
2023-04-18T16:37:08.980Z,14.78
2023-04-18T16:40:21.728Z,14.76
2023-04-18T16:43:36.603Z,14.71
2023-04-18T16:46:48.849Z,14.72
2023-04-18T16:50:01.470Z,14.61
2023-04-18T16:53:13.878Z,14.58
2023-04-18T16:56:26.424Z,14.54
2023-04-18T16:59:38.954Z,14.59
2023-04-18T17:02:51.862Z,14.52
2023-04-18T17:06:04.519Z,14.44
2023-04-18T17:09:27.006Z,14.40
2023-04-18T17:12:39.319Z,14.34
2023-04-18T17:15:51.746Z,14.31
2023-04-18T17:19:03.890Z,14.36
2023-04-18T17:22:16.130Z,14.30
2023-04-18T17:25:28.543Z,14.29
2023-04-18T17:28:41.154Z,14.22
2023-04-18T17:31:53.449Z,14.12
2023-04-18T17:35:06.811Z,14.08
2023-04-18T17:38:19.073Z,14.02
2023-04-18T17:41:31.331Z,14.01
2023-04-18T17:44:44.135Z,13.94
2023-04-18T17:47:57.943Z,13.88
2023-04-18T17:51:10.390Z,13.84
2023-04-18T17:54:22.905Z,13.82
2023-04-18T17:57:35.832Z,13.78
2023-04-18T18:00:48.651Z,13.74
2023-04-18T18:04:01.390Z,13.75
2023-04-18T18:07:14.133Z,13.76
2023-04-18T18:10:27.361Z,13.73
2023-04-18T18:13:39.860Z,13.69
2023-04-18T18:16:52.146Z,13.68
2023-04-18T18:20:04.657Z,13.66
2023-04-18T18:23:17.117Z,13.63
2023-04-18T18:26:31.164Z,13.65
2023-04-18T18:29:45.504Z,13.61
2023-04-18T18:32:57.817Z,13.60
2023-04-18T18:36:11.017Z,13.61
2023-04-18T18:39:23.405Z,13.56
2023-04-18T18:42:36.950Z,13.58
2023-04-18T18:45:50.160Z,13.54
2023-04-18T18:49:02.441Z,13.55
2023-04-18T18:52:14.930Z,13.50
2023-04-18T18:55:27.533Z,13.52
2023-04-18T18:58:40.762Z,13.51
2023-04-18T19:01:53.322Z,13.46
2023-04-18T19:05:06.016Z,13.42
2023-04-18T19:08:18.915Z,13.40
2023-04-18T19:11:31.208Z,13.40
2023-04-18T19:14:43.648Z,13.37
2023-04-18T19:17:55.936Z,13.31
2023-04-18T19:21:08.836Z,13.29
2023-04-18T19:24:21.708Z,13.29
2023-04-18T19:27:34.302Z,13.26
2023-04-18T19:30:47.149Z,13.18
2023-04-18T19:33:59.775Z,13.18
2023-04-18T19:37:12.150Z,13.05
2023-04-18T19:40:26.831Z,13.10
2023-04-18T19:43:40.632Z,13.05
2023-04-18T19:46:53.302Z,13.02
2023-04-18T19:50:06.108Z,13.00
2023-04-18T19:53:20.731Z,13.00
2023-04-18T19:56:33.738Z,13.00
2023-04-18T19:59:46.023Z,12.93
2023-04-18T20:02:59.109Z,12.91
2023-04-18T20:06:15.326Z,12.93
2023-04-18T20:09:28.052Z,12.88
2023-04-18T20:12:40.639Z,12.85
2023-04-18T20:15:53.563Z,12.84
2023-04-18T20:19:06.029Z,12.82
2023-04-18T20:22:18.865Z,12.78
2023-04-18T20:25:31.446Z,12.77
2023-04-18T20:28:43.658Z,12.74
2023-04-18T20:31:56.187Z,12.74
2023-04-18T20:35:08.719Z,12.70
2023-04-18T20:38:25.412Z,12.66
2023-04-18T20:41:37.318Z,12.65
2023-04-18T20:44:50.203Z,12.65
2023-04-18T20:48:03.806Z,12.66
2023-04-18T20:51:16.081Z,12.62
2023-04-18T20:54:28.741Z,12.57
2023-04-18T20:57:41.596Z,12.53
2023-04-18T21:00:53.684Z,12.53
2023-04-18T21:04:06.243Z,12.47
2023-04-18T21:07:19.156Z,12.47
2023-04-18T21:10:31.468Z,12.46
2023-04-18T21:13:43.588Z,12.37
2023-04-18T21:16:55.751Z,12.26
2023-04-18T21:20:08.269Z,12.28
2023-04-18T21:23:20.501Z,12.30
2023-04-18T21:26:32.527Z,12.23
2023-04-18T21:29:45.038Z,12.23
2023-04-18T21:32:57.324Z,12.21
2023-04-18T21:36:10.985Z,12.20
2023-04-18T21:39:23.345Z,12.23
2023-04-18T21:42:35.963Z,12.23
2023-04-18T21:45:48.443Z,12.16
2023-04-18T21:49:00.685Z,12.15
2023-04-18T21:52:13.326Z,12.15
2023-04-18T21:55:25.757Z,12.11
2023-04-18T21:58:38.537Z,12.08
2023-04-18T22:01:50.853Z,12.02
2023-04-18T22:05:03.059Z,11.97
2023-04-18T22:08:16.450Z,11.90
2023-04-18T22:11:28.754Z,11.86
2023-04-18T22:14:41.097Z,11.85
2023-04-18T22:17:54.608Z,11.78
2023-04-18T22:21:09.516Z,11.77
2023-04-18T22:24:22.748Z,11.72
2023-04-18T22:27:35.068Z,11.71
2023-04-18T22:30:47.556Z,11.69
2023-04-18T22:33:59.636Z,11.62
2023-04-18T22:37:12.319Z,11.64
2023-04-18T22:40:25.121Z,11.62
2023-04-18T22:43:37.591Z,11.61
2023-04-18T22:46:50.961Z,11.54
2023-04-18T22:50:02.962Z,11.46
2023-04-18T22:53:16.108Z,11.49
2023-04-18T22:56:28.735Z,11.50
2023-04-18T22:59:41.123Z,11.48
2023-04-18T23:02:53.754Z,11.47
2023-04-18T23:06:06.675Z,11.47
2023-04-18T23:09:19.948Z,11.44
2023-04-18T23:12:32.558Z,11.46
2023-04-18T23:15:44.593Z,11.48
2023-04-18T23:18:56.675Z,11.46
2023-04-18T23:22:08.726Z,11.54
2023-04-18T23:25:21.442Z,11.55
2023-04-18T23:28:34.051Z,11.57
2023-04-18T23:31:46.199Z,11.59
2023-04-18T23:34:58.623Z,11.59
2023-04-18T23:38:10.609Z,11.58
2023-04-18T23:41:22.688Z,11.60
2023-04-18T23:44:34.682Z,11.60
2023-04-18T23:47:46.927Z,11.59
2023-04-18T23:51:00.705Z,11.55
2023-04-18T23:54:13.085Z,11.44
2023-04-18T23:57:25.409Z,11.34
